CheckWX is a tool to help pilots better visualize weather data.  It is not intended as a substitute for an official pre-flight weather briefing.

09:32:38 UTC

KJKJ METAR
Moorhead Municipal Airport
Moorhead, Minnesota, USA
Current

18 mins ago

KJKJ 200915Z AUTO 09003KT 10SM CLR M12/M14 A3004 RMK AO2
Observed
Feb-20 @ 09:15 UTC
Wind
  • 090° at 3 KTS
Visibility
16,093 meters
Flight Rules
VFR
Cloud Levels
  • Clear skies
Temperature
-12°C / 10°F
Dewpoint
-14°C / 7°F
Humidity
85%
Altimeter
30.04" Hg
Pressure
1017.32 hPa
Previous

38 mins ago

KJKJ 200855Z AUTO 12003KT 10SM SCT065 M11/M14 A3005 RMK AO2
Observed
Feb-20 @ 08:55 UTC
Wind
  • 120° at 3 KTS
Visibility
16,093 meters
Flight Rules
VFR
Cloud Levels
  • Scattered at 6,500' AGL
Temperature
-11°C / 12°F
Dewpoint
-14°C / 7°F
Humidity
79%
Altimeter
30.05" Hg
Pressure
1017.62 hPa
Previous

57 mins ago

KJKJ 200836Z AUTO 12003KT 10SM BKN065 M12/M14 A3006 RMK AO2
Observed
Feb-20 @ 08:36 UTC
Wind
  • 120° at 3 KTS
Visibility
16,093 meters
Flight Rules
VFR
Cloud Levels
  • Broken at 6,500' AGL
Temperature
-12°C / 10°F
Dewpoint
-14°C / 7°F
Humidity
85%
Altimeter
30.06" Hg
Pressure
1017.92 hPa